Time;durP1;ratioP1;P1;durP2;ratioP2;P2;SDS_P1;SDS_P2;PMS_P1;PMS_P2;Temp;Humidity;BMP_temperature;BMP_pressure;BME280_temperature;BME280_humidity;BME280_pressure;Samples;Min_cycle;Max_cycle;Signal;HPM_P1;HPM_P2
2021/01/05 00:02:59;;;;;;;0.90;0.60;;;;;;;0.89;100.00;100715.72;4975082;28;20062;-80
2021/01/05 00:06:03;;;;;;;1.17;0.30;;;;;;;0.92;100.00;100717.69;4975095;28;20485;-78
2021/01/05 00:09:07;;;;;;;0.82;0.77;;;;;;;0.90;100.00;100702.78;4974462;28;20407;-79
2021/01/05 00:12:14;;;;;;;0.50;0.50;;;;;;;0.86;100.00;100697.31;4975040;28;20506;-82
2021/01/05 00:15:18;;;;;;;0.47;0.47;;;;;;;0.82;100.00;100702.00;4975244;28;20408;-83
2021/01/05 00:18:21;;;;;;;3.13;1.17;;;;;;;0.70;100.00;100700.41;4976626;28;20054;-83
2021/01/05 00:21:25;;;;;;;0.22;0.17;;;;;;;0.67;100.00;100705.88;4964669;28;20054;-84
2021/01/05 00:24:32;;;;;;;0.45;0.45;;;;;;;0.65;100.00;100705.50;4975833;28;20050;-82
2021/01/05 00:27:37;;;;;;;0.70;0.70;;;;;;;0.72;100.00;100713.72;4975284;28;20062;-83
2021/01/05 00:30:40;;;;;;;1.00;0.90;;;;;;;0.75;100.00;100704.72;4975683;28;20127;-81
2021/01/05 00:33:43;;;;;;;0.45;0.45;;;;;;;0.75;100.00;100701.97;4976040;28;20061;-83
2021/01/05 00:36:46;;;;;;;0.60;0.38;;;;;;;0.75;100.00;100699.25;4985609;28;20051;-83
2021/01/05 00:39:50;;;;;;;0.50;0.50;;;;;;;0.71;100.00;100701.97;4976435;28;20131;-81
2021/01/05 00:42:54;;;;;;;3.40;0.57;;;;;;;0.67;100.00;100703.91;4972130;28;20128;-84
2021/01/05 00:45:57;;;;;;;0.40;0.40;;;;;;;0.65;100.00;100698.03;4989496;28;20057;-83
2021/01/05 00:49:01;;;;;;;0.60;0.40;;;;;;;0.69;100.00;100704.31;5013942;28;20048;-83
2021/01/05 00:52:04;;;;;;;0.30;0.30;;;;;;;0.72;100.00;100697.25;5013553;28;20117;-84
2021/01/05 00:55:08;;;;;;;0.20;0.20;;;;;;;0.74;100.00;100700.41;5014026;28;20077;-85
2021/01/05 00:58:12;;;;;;;0.25;0.25;;;;;;;0.74;100.00;100694.91;5013968;28;20060;-82
2021/01/05 01:01:15;;;;;;;0.73;0.73;;;;;;;0.72;100.00;100697.25;5024047;28;20126;-85
2021/01/05 01:04:19;;;;;;;0.40;0.22;;;;;;;0.73;100.00;100696.91;5024305;28;20061;-84
2021/01/05 01:07:22;;;;;;;0.75;0.75;;;;;;;0.73;100.00;100704.34;5013901;28;20057;-83
2021/01/05 01:10:26;;;;;;;0.73;0.28;;;;;;;0.71;100.00;100701.97;5014319;28;20061;-85
2021/01/05 01:13:29;;;;;;;0.85;0.40;;;;;;;0.68;100.00;100702.75;5014432;28;20053;-83
2021/01/05 01:16:32;;;;;;;0.80;0.30;;;;;;;0.69;100.00;100692.59;5002103;28;20513;-86
2021/01/05 01:19:36;;;;;;;0.20;0.20;;;;;;;0.66;100.00;100694.13;5024860;28;20502;-86
2021/01/05 01:22:39;;;;;;;5.80;1.05;;;;;;;0.64;100.00;100692.94;5014756;28;20049;-86
2021/01/05 01:25:43;;;;;;;1.45;0.40;;;;;;;0.61;100.00;100690.97;4994437;28;20053;-84
2021/01/05 01:28:47;;;;;;;0.10;0.10;;;;;;;0.63;100.00;100691.38;4994021;28;20053;-85
2021/01/05 01:31:51;;;;;;;1.00;1.00;;;;;;;0.70;100.00;100691.41;4982886;28;20057;-85
2021/01/05 01:34:54;;;;;;;0.38;0.38;;;;;;;0.68;100.00;100682.78;4982028;28;20053;-84
2021/01/05 01:37:58;;;;;;;0.10;0.10;;;;;;;0.64;100.00;100685.53;4994468;28;20061;-84
2021/01/05 01:41:01;;;;;;;3.25;0.73;;;;;;;0.60;100.00;100687.47;4981952;28;20069;-85
2021/01/05 01:44:05;;;;;;;0.80;0.80;;;;;;;0.61;100.00;100688.22;4993933;28;20057;-86
2021/01/05 01:47:17;;;;;;;2.38;0.95;;;;;;;0.62;100.00;100682.38;4962841;28;20057;-85
2021/01/05 01:50:28;;;;;;;1.27;0.77;;;;;;;0.67;100.00;100690.22;4962357;28;20054;-87
2021/01/05 01:54:05;;;;;;;0.57;0.52;;;;;;;0.73;100.00;100698.84;4974466;28;20050;-87
2021/01/05 01:57:32;;;;;;;9.02;1.25;;;;;;;0.76;100.00;100682.41;4962610;28;20062;-87
2021/01/05 02:00:46;;;;;;;0.47;0.47;;;;;;;0.79;100.00;100694.56;4962745;28;20045;-87
2021/01/05 02:04:09;;;;;;;1.65;0.57;;;;;;;0.84;100.00;100694.19;4962241;28;20128;-84
2021/01/05 02:07:49;;;;;;;7.13;1.27;;;;;;;0.87;100.00;100682.41;4974034;28;20058;-83
2021/01/05 02:10:52;;;;;;;0.30;0.30;;;;;;;0.85;100.00;100679.28;4973909;28;20081;-87
2021/01/05 02:14:17;;;;;;;6.97;1.55;;;;;;;0.85;100.00;100689.44;4962078;28;20054;-86
2021/01/05 02:17:50;;;;;;;0.77;0.77;;;;;;;0.86;100.00;100678.13;4973236;28;20526;-85
2021/01/05 02:20:59;;;;;;;2.38;0.70;;;;;;;0.89;100.00;100684.78;4962054;28;20057;-86
2021/01/05 02:24:38;;;;;;;0.40;0.40;;;;;;;0.91;100.00;100677.72;4971187;28;20069;-83
2021/01/05 02:27:49;;;;;;;1.52;0.88;;;;;;;0.87;100.00;100674.19;4976228;28;20069;-85
2021/01/05 02:31:00;;;;;;;0.70;0.60;;;;;;;0.85;100.00;100673.78;4981916;28;20073;-86
2021/01/05 02:34:27;;;;;;;0.32;0.32;;;;;;;0.86;100.00;100680.84;4992072;28;20049;-87
2021/01/05 02:37:47;;;;;;;5.13;0.60;;;;;;;0.85;100.00;100679.28;4992880;28;20411;-89
2021/01/05 02:41:06;;;;;;;0.93;0.65;;;;;;;0.87;100.00;100676.94;4980828;28;20044;-89
2021/01/05 02:44:31;;;;;;;1.55;0.50;;;;;;;0.83;100.00;100667.91;4992745;28;20415;-87
2021/01/05 02:47:59;;;;;;;0.10;0.10;;;;;;;0.85;100.00;100673.78;4972454;28;20074;-87
2021/01/05 02:51:21;;;;;;;0.55;0.55;;;;;;;0.89;100.00;100679.31;4981077;28;21864;-87
2021/01/05 02:54:59;;;;;;;22.23;0.80;;;;;;;0.90;100.00;100670.69;5011557;28;20600;-87
2021/01/05 02:58:36;;;;;;;0.75;0.60;;;;;;;0.91;100.00;100663.25;5013164;28;20053;-87
2021/01/05 03:01:55;;;;;;;0.40;0.40;;;;;;;0.92;100.00;100668.31;5003475;28;20057;-89
2021/01/05 03:04:59;;;;;;;0.30;0.30;;;;;;;0.89;100.00;100663.63;5004442;28;20057;-89
2021/01/05 03:08:03;;;;;;;1.00;0.20;;;;;;;0.90;100.00;100659.72;5000197;28;20069;-87
2021/01/05 03:11:14;;;;;;;0.60;0.57;;;;;;;0.91;100.00;100661.25;4972618;28;20057;-89
2021/01/05 03:14:44;;;;;;;18.63;1.00;;;;;;;0.91;100.00;100658.53;4975950;28;20054;-88
2021/01/05 03:17:57;;;;;;;0.60;0.60;;;;;;;0.90;100.00;100665.19;4976050;28;20054;-87
2021/01/05 03:21:07;;;;;;;1.80;0.68;;;;;;;0.90;100.00;100667.94;4976599;28;20407;-88
2021/01/05 03:24:12;;;;;;;2.67;0.70;;;;;;;0.91;100.00;100660.50;4976104;28;20077;-88
2021/01/05 03:27:15;;;;;;;1.27;1.08;;;;;;;0.90;100.00;100661.66;4965244;28;20058;-89
2021/01/05 03:30:32;;;;;;;2.58;0.50;;;;;;;0.86;100.00;100663.63;4975881;28;20058;-88
2021/01/05 03:33:35;;;;;;;1.95;1.02;;;;;;;0.89;100.00;100673.81;4976398;28;20058;-87
2021/01/05 03:36:39;;;;;;;0.20;0.20;;;;;;;0.88;100.00;100678.50;4979457;28;20058;-86
2021/01/05 03:39:43;;;;;;;0.28;0.28;;;;;;;0.87;100.00;100673.44;4978945;28;20058;-87
2021/01/05 03:42:46;;;;;;;1.67;0.68;;;;;;;0.86;100.00;100675.38;4978215;28;20069;-88
2021/01/05 03:45:50;;;;;;;3.70;2.00;;;;;;;0.86;100.00;100682.81;4992539;28;20061;-87
2021/01/05 03:48:55;;;;;;;1.42;0.45;;;;;;;0.85;100.00;100684.75;5015816;28;20052;-88
2021/01/05 03:51:58;;;;;;;0.17;0.17;;;;;;;0.85;100.00;100679.28;5013876;28;20049;-88
2021/01/05 03:55:01;;;;;;;0.22;0.22;;;;;;;0.85;100.00;100679.28;5026198;28;20561;-86
2021/01/05 03:58:05;;;;;;;0.60;0.60;;;;;;;0.84;100.00;100672.25;5015643;28;20061;-85
2021/01/05 04:01:09;;;;;;;0.30;0.30;;;;;;;0.78;100.00;100671.81;5015413;28;20410;-85
2021/01/05 04:04:12;;;;;;;3.42;0.50;;;;;;;0.76;100.00;100676.13;5014882;28;20671;-84
2021/01/05 04:07:16;;;;;;;1.23;0.65;;;;;;;0.72;100.00;100672.59;5014434;28;20094;-84
2021/01/05 04:10:19;;;;;;;1.08;0.75;;;;;;;0.77;100.00;100674.97;5014314;28;20057;-83
2021/01/05 04:13:23;;;;;;;1.27;0.40;;;;;;;0.76;100.00;100665.94;5025444;28;20521;-84
2021/01/05 04:16:26;;;;;;;0.25;0.25;;;;;;;0.75;100.00;100674.56;5001773;28;20052;-84
2021/01/05 04:19:29;;;;;;;6.75;0.80;;;;;;;0.74;100.00;100679.25;5013788;28;20065;-83
2021/01/05 04:22:33;;;;;;;0.75;0.70;;;;;;;0.78;100.00;100673.78;5013794;28;20049;-84
2021/01/05 04:25:36;;;;;;;0.73;0.73;;;;;;;0.82;100.00;100682.81;5023223;28;20056;-84
2021/01/05 04:28:39;;;;;;;0.28;0.28;;;;;;;0.82;100.00;100674.59;5013514;28;20511;-84
2021/01/05 04:31:44;;;;;;;1.13;1.00;;;;;;;0.78;100.00;100660.88;5013632;28;20064;-84
2021/01/05 04:34:47;;;;;;;1.52;1.30;;;;;;;0.69;100.00;100660.44;5013374;28;20069;-83
2021/01/05 04:37:52;;;;;;;1.30;1.20;;;;;;;0.65;100.00;100669.88;5001255;28;20406;-83
2021/01/05 04:40:56;;;;;;;0.40;0.32;;;;;;;0.61;100.00;100669.06;5013721;28;20057;-83
2021/01/05 04:44:03;;;;;;;0.40;0.30;;;;;;;0.59;100.00;100668.66;5013963;28;20053;-84
2021/01/05 04:47:24;;;;;;;0.35;0.35;;;;;;;0.61;100.00;100680.00;4995199;28;20084;-83
2021/01/05 04:50:43;;;;;;;;;;;;;;;0.66;100.00;100661.25;4993869;28;20069;-84
2021/01/05 04:53:58;;;;;;;3.13;0.65;;;;;;;0.70;100.00;100667.50;4981161;28;19921;-84
2021/01/05 04:57:17;;;;;;;0.85;0.85;;;;;;;0.76;100.00;100659.69;4993621;28;20057;-84
2021/01/05 05:00:25;;;;;;;0.50;0.50;;;;;;;0.81;100.00;100662.03;4993852;28;20057;-83
2021/01/05 05:03:33;;;;;;;3.40;0.73;;;;;;;0.85;100.00;100662.81;4981516;28;20053;-84
2021/01/05 05:06:42;;;;;;;1.30;0.50;;;;;;;0.88;100.00;100659.31;4993489;28;20057;-82
2021/01/05 05:10:00;;;;;;;0.45;0.32;;;;;;;0.90;100.00;100659.72;4993744;28;20049;-83
2021/01/05 05:13:15;;;;;;;0.70;0.45;;;;;;;0.87;100.00;100648.75;4981746;28;20407;-84
2021/01/05 05:16:36;;;;;;;0.38;0.38;;;;;;;0.80;100.00;100644.03;4981847;28;20049;-83
2021/01/05 05:19:45;;;;;;;0.35;0.20;;;;;;;0.75;100.00;100658.13;4993007;28;20371;-84
2021/01/05 05:23:02;;;;;;;0.32;0.32;;;;;;;0.75;100.00;100667.13;4980815;28;20057;-84
2021/01/05 05:26:28;;;;;;;0.20;0.20;;;;;;;0.77;100.00;100655.78;4993202;28;20049;-84
2021/01/05 05:29:52;;;;;;;0.38;0.38;;;;;;;0.78;100.00;100652.63;4993567;28;20053;-83
2021/01/05 05:32:58;;;;;;;0.13;0.13;;;;;;;0.81;100.00;100653.81;4987212;28;20502;-84
2021/01/05 05:36:23;;;;;;;0.30;0.30;;;;;;;0.83;100.00;100647.94;4981258;28;20053;-83
2021/01/05 05:40:13;;;;;;;3.15;0.80;;;;;;;0.86;100.00;100658.13;4993216;28;20058;-83
2021/01/05 05:43:53;;;;;;;1.33;0.40;;;;;;;0.81;100.00;100653.81;4962654;28;20073;-84
2021/01/05 05:47:22;;;;;;;2.30;1.25;;;;;;;0.79;100.00;100656.16;5010024;28;20057;-83
2021/01/05 05:50:44;;;;;;;0.55;0.40;;;;;;;0.76;100.00;100657.72;5012115;28;20057;-84
2021/01/05 05:53:55;;;;;;;0.63;0.63;;;;;;;0.74;100.00;100656.53;5011942;28;20060;-84
2021/01/05 05:57:29;;;;;;;0.10;0.10;;;;;;;0.75;100.00;100663.59;5000215;28;20068;-84
2021/01/05 06:00:40;;;;;;;0.85;0.85;;;;;;;0.75;100.00;100663.59;5012357;28;20060;-83
2021/01/05 06:03:43;;;;;;;1.65;1.23;;;;;;;0.75;100.00;100655.38;5012020;28;20053;-84
2021/01/05 06:06:48;;;;;;;0.90;0.50;;;;;;;0.70;100.00;100667.50;5012480;28;20959;-83
2021/01/05 06:09:51;;;;;;;0.50;0.50;;;;;;;0.65;100.00;100658.91;4999286;28;20053;-83
2021/01/05 06:12:54;;;;;;;0.50;0.50;;;;;;;0.57;100.00;100655.34;5012014;28;20279;-83
2021/01/05 06:15:58;;;;;;;0.73;0.45;;;;;;;0.54;100.00;100653.38;5012364;28;20533;-83
2021/01/05 06:19:01;;;;;;;0.57;0.40;;;;;;;0.51;100.00;100656.13;5012456;28;20061;-83
2021/01/05 06:22:05;;;;;;;0.55;0.55;;;;;;;0.47;100.00;100652.59;5012333;28;20529;-83
2021/01/05 06:25:10;;;;;;;0.82;0.82;;;;;;;0.47;100.00;100647.91;5011890;28;20061;-84
2021/01/05 06:28:14;;;;;;;1.05;0.90;;;;;;;0.48;100.00;100659.63;5012022;28;20061;-83
2021/01/05 06:31:18;;;;;;;0.70;0.70;;;;;;;0.50;100.00;100649.84;4999724;28;20053;-83
2021/01/05 06:34:21;;;;;;;1.50;0.77;;;;;;;0.52;100.00;100654.97;5000278;28;20052;-84
2021/01/05 06:37:24;;;;;;;1.35;0.75;;;;;;;0.50;100.00;100662.75;5012065;28;20057;-84
2021/01/05 06:40:28;;;;;;;4.88;0.95;;;;;;;0.52;100.00;100666.69;5022605;28;20056;-84
2021/01/05 06:43:31;;;;;;;0.32;0.30;;;;;;;0.52;100.00;100668.66;5011964;28;20049;-84
2021/01/05 06:46:34;;;;;;;0.50;0.50;;;;;;;0.57;100.00;100679.22;4997555;28;20053;-84
2021/01/05 06:49:38;;;;;;;0.38;0.38;;;;;;;0.58;100.00;100680.81;4994054;28;20546;-84
2021/01/05 06:52:41;;;;;;;1.40;1.08;;;;;;;0.62;100.00;100681.59;4996160;28;20049;-84
2021/01/05 06:55:44;;;;;;;0.90;0.90;;;;;;;0.63;100.00;100677.66;4994915;28;20049;-84
2021/01/05 06:58:48;;;;;;;0.93;0.40;;;;;;;0.68;100.00;100677.28;4983611;28;20061;-84
2021/01/05 07:01:54;;;;;;;5.78;1.85;;;;;;;0.71;100.00;100677.28;4996150;28;20395;-84
2021/01/05 07:04:57;;;;;;;0.32;0.32;;;;;;;0.75;100.00;100685.53;4995905;28;20122;-83
2021/01/05 07:08:00;;;;;;;1.85;0.60;;;;;;;0.75;100.00;100694.56;4995897;28;20057;-80
2021/01/05 07:11:03;;;;;;;3.15;0.95;;;;;;;0.74;100.00;100694.91;4995137;28;20061;-80
2021/01/05 07:14:07;;;;;;;3.15;1.27;;;;;;;0.72;100.00;100686.31;4994843;28;20073;-80
2021/01/05 07:17:11;;;;;;;0.82;0.70;;;;;;;0.66;100.00;100688.66;4994872;28;20057;-81
2021/01/05 07:20:15;;;;;;;0.80;0.80;;;;;;;0.66;100.00;100682.38;4994596;28;20049;-80
2021/01/05 07:23:19;;;;;;;2.55;0.90;;;;;;;0.64;100.00;100690.22;4982802;28;20398;-81
2021/01/05 07:26:22;;;;;;;0.98;0.68;;;;;;;0.67;100.00;100684.72;4978136;28;20610;-79
2021/01/05 07:29:25;;;;;;;1.23;0.63;;;;;;;0.67;100.00;100678.47;4994872;28;20053;-81
2021/01/05 07:32:29;;;;;;;2.10;1.00;;;;;;;0.65;100.00;100680.84;4995433;28;20045;-82
2021/01/05 07:35:32;;;;;;;4.95;0.52;;;;;;;0.68;100.00;100680.81;4994084;28;20735;-80
2021/01/05 07:38:37;;;;;;;4.85;1.23;;;;;;;0.68;100.00;100682.78;4994632;28;20061;-80
2021/01/05 07:41:40;;;;;;;0.38;0.22;;;;;;;0.71;100.00;100687.50;4983005;28;20053;-80
2021/01/05 07:44:46;;;;;;;1.65;0.95;;;;;;;0.71;100.00;100680.03;4992506;28;20093;-79
2021/01/05 07:47:50;;;;;;;4.13;0.50;;;;;;;0.71;100.00;100679.28;4980736;28;20057;-80
2021/01/05 07:50:53;;;;;;;0.65;0.65;;;;;;;0.69;100.00;100679.63;4988497;28;20057;-80
2021/01/05 07:53:56;;;;;;;3.60;0.60;;;;;;;0.68;100.00;100674.56;4987221;28;20050;-80
2021/01/05 07:57:00;;;;;;;2.35;1.00;;;;;;;0.56;100.00;100674.94;4982937;28;20057;-81
2021/01/05 08:00:05;;;;;;;4.53;1.05;;;;;;;0.50;100.00;100684.69;4999000;28;20411;-80
2021/01/05 08:03:10;;;;;;;1.17;0.68;;;;;;;0.49;100.00;100685.88;4989797;28;20057;-81
2021/01/05 08:06:14;;;;;;;0.28;0.28;;;;;;;0.50;100.00;100690.94;4994752;28;20061;-81
2021/01/05 08:09:17;;;;;;;0.95;0.85;;;;;;;0.49;100.00;100694.88;4994696;28;20387;-81
2021/01/05 08:12:21;;;;;;;0.68;0.63;;;;;;;0.51;100.00;100697.22;5005056;28;20065;-82
2021/01/05 08:15:29;;;;;;;1.55;0.75;;;;;;;0.55;100.00;100703.50;4994365;28;20127;-82
2021/01/05 08:18:32;;;;;;;3.60;0.73;;;;;;;0.57;100.00;100709.38;4992170;28;20045;-81
2021/01/05 08:21:35;;;;;;;0.90;0.90;;;;;;;0.60;100.00;100712.13;4993454;28;20061;-82
2021/01/05 08:24:39;;;;;;;0.70;0.70;;;;;;;0.61;100.00;100712.91;4974067;28;20054;-81
2021/01/05 08:27:50;;;;;;;0.20;0.20;;;;;;;0.62;100.00;100711.75;4974545;28;20419;-82
2021/01/05 08:30:54;;;;;;;0.63;0.57;;;;;;;0.69;100.00;100717.25;4974973;28;20069;-81
2021/01/05 08:33:57;;;;;;;16.90;1.23;;;;;;;0.74;100.00;100722.34;4974961;28;20074;-81
2021/01/05 08:37:00;;;;;;;1.85;0.65;;;;;;;0.71;100.00;100723.13;4975408;28;20516;-82
2021/01/05 08:40:07;;;;;;;2.50;0.82;;;;;;;0.69;100.00;100718.00;4974498;28;20054;-78
2021/01/05 08:43:11;;;;;;;0.65;0.60;;;;;;;0.71;100.00;100723.13;4974150;28;20070;-78
2021/01/05 08:46:20;;;;;;;0.50;0.50;;;;;;;0.69;100.00;100720.00;4985099;28;20407;-79
2021/01/05 08:49:23;;;;;;;1.05;0.63;;;;;;;0.72;100.00;100724.69;4979918;28;20057;-79
2021/01/05 08:52:27;;;;;;;0.45;0.45;;;;;;;0.75;100.00;100732.13;4992670;28;20053;-79
2021/01/05 08:55:34;;;;;;;1.40;1.13;;;;;;;0.80;100.00;100726.28;4992510;28;20066;-78
2021/01/05 08:58:38;;;;;;;2.05;0.60;;;;;;;0.85;100.00;100734.09;4993023;28;20413;-79
2021/01/05 09:01:41;;;;;;;0.10;0.10;;;;;;;0.86;100.00;100712.97;4981672;28;20102;-79
2021/01/05 09:04:45;;;;;;;0.30;0.30;;;;;;;0.84;100.00;100710.63;4993027;28;20061;-79
2021/01/05 09:07:49;;;;;;;0.40;0.40;;;;;;;0.82;100.00;100732.16;4995547;28;20118;-79
2021/01/05 09:10:52;;;;;;;0.45;0.45;;;;;;;0.87;100.00;100726.28;4994312;28;20514;-80
2021/01/05 09:13:56;;;;;;;0.10;0.10;;;;;;;0.93;100.00;100730.22;4995099;28;20041;-79
2021/01/05 09:17:01;;;;;;;0.75;0.75;;;;;;;0.95;100.00;100727.88;4994767;28;20403;-79
2021/01/05 09:20:05;;;;;;;0.15;0.15;;;;;;;0.98;100.00;100734.53;4991566;28;20066;-79
2021/01/05 09:23:09;;;;;;;0.10;0.10;;;;;;;0.99;100.00;100727.88;4991272;28;20399;-80
2021/01/05 09:26:18;;;;;;;1.25;0.82;;;;;;;1.05;100.00;100731.78;4991408;28;20058;-80
2021/01/05 09:29:24;;;;;;;0.63;0.63;;;;;;;1.08;100.00;100731.81;4992261;28;20065;-78
2021/01/05 09:32:33;;;;;;;0.20;0.20;;;;;;;1.11;100.00;100713.78;4992889;28;20077;-79
2021/01/05 09:35:36;;;;;;;3.13;0.60;;;;;;;1.14;100.00;100730.25;4992832;28;20053;-78
2021/01/05 09:38:41;;;;;;;4.78;0.85;;;;;;;1.16;100.00;100729.84;4992650;28;20049;-80
2021/01/05 09:41:50;;;;;;;0.20;0.20;;;;;;;1.20;100.00;100728.69;4992963;28;20066;-83
2021/01/05 09:44:53;;;;;;;0.68;0.30;;;;;;;1.25;100.00;100731.06;4992367;28;20061;-78
2021/01/05 09:48:11;;;;;;;0.20;0.20;;;;;;;1.33;100.00;100729.06;4993268;28;20049;-78
2021/01/05 09:51:29;;;;;;;0.95;0.57;;;;;;;1.46;100.00;100722.81;4993022;28;20058;-77
2021/01/05 09:54:33;;;;;;;0.73;0.40;;;;;;;1.61;100.00;100736.50;4992141;28;20407;-78
2021/01/05 09:57:36;;;;;;;7.97;0.40;;;;;;;1.76;100.00;100721.59;4993531;28;20117;-78
2021/01/05 10:00:39;;;;;;;4.10;0.43;;;;;;;1.90;100.00;100724.34;4992509;28;20372;-78
2021/01/05 10:03:43;;;;;;;0.20;0.17;;;;;;;1.94;100.00;100727.84;4993188;28;20108;-77
2021/01/05 10:06:47;;;;;;;0.25;0.17;;;;;;;1.89;100.00;100717.25;4992768;28;20057;-78
2021/01/05 10:09:50;;;;;;;0.47;0.30;;;;;;;1.90;100.00;100735.31;4992956;28;20057;-78
2021/01/05 10:12:54;;;;;;;0.82;0.22;;;;;;;1.93;100.00;100732.56;4992351;28;20407;-78
2021/01/05 10:15:58;;;;;;;2.92;1.20;;;;;;;1.98;100.00;100732.16;4991458;28;20053;-77
2021/01/05 10:19:02;;;;;;;0.20;0.20;;;;;;;2.07;100.00;100738.03;5002752;28;20061;-80
2021/01/05 10:22:05;;;;;;;17.10;1.08;;;;;;;2.10;100.00;100736.44;4992127;28;20527;-78
2021/01/05 10:25:11;;;;;;;0.30;0.30;;;;;;;2.07;100.00;100739.97;5013538;28;20049;-77
2021/01/05 10:28:15;;;;;;;0.10;0.10;;;;;;;2.08;100.00;100741.56;5003873;28;20077;-76
2021/01/05 10:31:18;;;;;;;0.35;0.20;;;;;;;2.07;100.00;100746.25;5015048;28;20114;-78
2021/01/05 10:34:24;;;;;;;0.20;0.20;;;;;;;2.10;100.00;100750.19;5003865;28;20045;-78
2021/01/05 10:37:28;;;;;;;0.20;0.10;;;;;;;2.13;100.00;100749.38;5015311;28;20084;-77
2021/01/05 10:40:31;;;;;;;10.10;1.10;;;;;;;2.09;100.00;100738.41;5015603;28;20403;-78
2021/01/05 10:43:35;;;;;;;0.17;0.17;;;;;;;2.12;100.00;100739.59;5015429;28;20057;-79
2021/01/05 10:46:38;;;;;;;0.20;0.20;;;;;;;2.22;100.00;100738.75;5015163;28;20049;-79
2021/01/05 10:49:42;;;;;;;0.20;0.15;;;;;;;2.38;100.00;100741.84;5013628;28;20107;-78
2021/01/05 10:52:47;;;;;;;13.25;0.50;;;;;;;2.45;100.00;100733.56;5000271;28;20053;-78
2021/01/05 10:55:50;;;;;;;2.60;0.77;;;;;;;2.51;100.00;100718.25;4982730;28;20514;-79
2021/01/05 10:58:54;;;;;;;0.60;0.30;;;;;;;2.50;100.00;100727.66;4976204;28;20057;-75
2021/01/05 11:01:59;;;;;;;0.30;0.25;;;;;;;2.50;100.00;100727.66;4976331;28;20063;-77
2021/01/05 11:05:03;;;;;;;0.52;0.52;;;;;;;2.53;100.00;100721.38;4976660;28;20542;-78
2021/01/05 11:08:08;;;;;;;1.55;0.82;;;;;;;2.58;100.00;100723.69;4976068;28;20081;-78
2021/01/05 11:11:16;;;;;;;1.00;0.30;;;;;;;2.59;100.00;100718.97;4986859;28;20506;-77
2021/01/05 11:14:20;;;;;;;1.15;0.10;;;;;;;2.63;100.00;100731.53;4975563;28;20054;-77
2021/01/05 11:17:23;;;;;;;0.50;0.20;;;;;;;2.69;100.00;100716.16;4975678;28;20062;-77
2021/01/05 11:20:26;;;;;;;2.10;0.55;;;;;;;2.73;100.00;100716.94;4975193;28;20054;-76
2021/01/05 11:23:29;;;;;;;4.60;0.32;;;;;;;2.77;100.00;100709.44;4975093;28;20073;-77
2021/01/05 11:26:34;;;;;;;0.40;0.20;;;;;;;2.78;100.00;100707.47;4963591;28;20054;-78
2021/01/05 11:29:38;;;;;;;0.75;0.57;;;;;;;2.77;100.00;100697.69;4974745;28;20058;-77
2021/01/05 11:32:41;;;;;;;0.30;0.30;;;;;;;2.80;100.00;100705.91;4975578;28;20368;-79
2021/01/05 11:35:44;;;;;;;3.25;0.25;;;;;;;2.79;100.00;100712.59;4975118;28;20049;-78
2021/01/05 11:38:47;;;;;;;0.17;0.17;;;;;;;2.76;100.00;100707.88;4975439;28;20049;-79
2021/01/05 11:41:51;;;;;;;0.10;0.10;;;;;;;2.76;100.00;100696.09;4990219;28;20061;-80
2021/01/05 11:44:54;;;;;;;0.82;0.40;;;;;;;2.74;100.00;100704.75;4979024;28;20053;-80
2021/01/05 11:47:58;;;;;;;8.40;0.63;;;;;;;2.65;100.00;100703.63;4990092;28;20057;-80
2021/01/05 11:51:01;;;;;;;0.20;0.20;;;;;;;2.45;100.00;100708.81;5015576;28;20049;-81
2021/01/05 11:54:05;;;;;;;6.07;0.25;;;;;;;2.29;100.00;100706.56;5014046;28;20057;-80
2021/01/05 11:57:09;;;;;;;0.10;0.10;;;;;;;2.18;100.00;100694.03;5001837;28;20049;-80
2021/01/05 12:00:17;;;;;;;1.10;0.43;;;;;;;2.12;100.00;100687.38;4978629;28;20073;-80
2021/01/05 12:03:20;;;;;;;0.20;0.20;;;;;;;2.06;100.00;100687.00;4974475;28;20058;-79
2021/01/05 12:06:24;;;;;;;0.25;0.10;;;;;;;2.06;100.00;100686.22;4974338;28;20054;-81
2021/01/05 12:09:28;;;;;;;0.17;0.17;;;;;;;2.04;100.00;100689.34;4974388;28;20053;-78
2021/01/05 12:12:32;;;;;;;2.80;0.20;;;;;;;2.08;100.00;100692.13;4974082;28;20058;-79
2021/01/05 12:15:35;;;;;;;5.95;0.32;;;;;;;2.16;100.00;100686.19;4974611;28;20162;-80
2021/01/05 12:18:39;;;;;;;0.30;0.30;;;;;;;2.39;100.00;100691.19;4974210;28;20058;-79
2021/01/05 12:21:42;;;;;;;0.50;0.38;;;;;;;2.77;100.00;100681.94;4974403;28;20529;-79
2021/01/05 12:24:46;;;;;;;0.50;0.50;;;;;;;3.03;100.00;100686.88;4988993;28;20045;-78
2021/01/05 12:27:49;;;;;;;1.20;0.45;;;;;;;3.11;100.00;100695.09;4993218;28;20522;-79
2021/01/05 12:30:52;;;;;;;1.58;0.82;;;;;;;3.03;100.00;100678.63;4993770;28;20058;-79
2021/01/05 12:33:56;;;;;;;0.93;0.50;;;;;;;2.96;100.00;100681.44;4993674;28;20066;-80
2021/01/05 12:37:03;;;;;;;0.85;0.35;;;;;;;2.91;100.00;100681.84;5010630;28;20053;-80
2021/01/05 12:40:07;;;;;;;1.00;0.75;;;;;;;2.85;100.00;100683.47;5013416;28;20052;-77
2021/01/05 12:43:10;;;;;;;9.32;1.00;;;;;;;2.74;100.00;100677.25;5013093;28;20049;-78
2021/01/05 12:46:25;;;;;;;0.28;0.28;;;;;;;2.60;100.00;100677.31;5012817;28;20101;-78
2021/01/05 12:49:29;;;;;;;4.38;0.43;;;;;;;2.55;100.00;100671.47;5012820;28;20061;-78
2021/01/05 12:52:35;;;;;;;0.50;0.35;;;;;;;2.46;100.00;100677.41;5012801;28;20085;-78
2021/01/05 12:55:38;;;;;;;1.20;0.63;;;;;;;2.44;100.00;100666.03;5012035;28;20161;-78
2021/01/05 12:58:41;;;;;;;1.85;0.57;;;;;;;2.47;100.00;100658.97;5012609;28;20052;-78
2021/01/05 13:01:45;;;;;;;0.10;0.10;;;;;;;2.40;100.00;100640.53;5013113;28;20061;-79
2021/01/05 13:04:48;;;;;;;0.40;0.32;;;;;;;2.35;100.00;100640.16;5012433;28;20513;-78
2021/01/05 13:07:52;;;;;;;0.20;0.20;;;;;;;2.27;100.00;100640.19;5004273;28;20053;-80
2021/01/05 13:10:55;;;;;;;0.85;0.30;;;;;;;2.28;100.00;100638.25;5011157;28;20157;-79
2021/01/05 13:14:00;;;;;;;0.20;0.20;;;;;;;2.36;100.00;100645.25;4998970;28;20406;-80
2021/01/05 13:17:04;;;;;;;0.70;0.52;;;;;;;2.51;100.00;100646.78;5011437;28;20461;-80
2021/01/05 13:20:12;;;;;;;1.50;0.80;;;;;;;2.56;100.00;100643.56;5011086;28;20395;-80
2021/01/05 13:23:16;;;;;;;5.22;0.43;;;;;;;2.54;100.00;100648.69;5004661;28;20049;-80
2021/01/05 13:26:19;;;;;;;0.20;0.20;;;;;;;2.53;100.00;100644.41;4999857;28;20064;-80
2021/01/05 13:29:24;;;;;;;0.90;0.90;;;;;;;2.61;100.00;100648.66;4995342;28;20496;-79
2021/01/05 13:32:31;;;;;;;6.00;0.63;;;;;;;2.75;100.00;100645.03;4999790;28;20064;-81
2021/01/05 13:35:35;;;;;;;0.32;0.25;;;;;;;2.86;100.00;100634.72;4999001;28;20057;-81
2021/01/05 13:38:38;;;;;;;2.95;0.95;;;;;;;2.90;100.00;100635.50;4982503;28;20049;-81
2021/01/05 13:41:43;;;;;;;0.30;0.30;;;;;;;2.94;100.00;100630.75;4994433;28;20098;-80
2021/01/05 13:44:50;;;;;;;3.63;0.43;;;;;;;2.90;100.00;100630.00;4992242;28;20398;-81
2021/01/05 13:47:54;;;;;;;0.15;0.15;;;;;;;2.88;100.00;100621.38;4994591;28;20423;-82
2021/01/05 13:50:57;;;;;;;2.20;0.60;;;;;;;2.82;100.00;100622.97;4992886;28;20057;-82
2021/01/05 13:54:02;;;;;;;0.13;0.10;;;;;;;2.79;100.00;100624.59;4991964;28;20054;-81
2021/01/05 13:57:06;;;;;;;0.25;0.22;;;;;;;2.77;100.00;100634.41;4992484;28;20054;-81
2021/01/05 14:00:10;;;;;;;1.75;0.50;;;;;;;2.84;100.00;100637.88;4980480;28;20443;-81
2021/01/05 14:03:17;;;;;;;3.92;0.55;;;;;;;2.96;100.00;100631.13;4991902;28;20065;-83
2021/01/05 14:06:32;;;;;;;0.80;0.20;;;;;;;3.00;100.00;100629.91;4979459;28;20505;-81
2021/01/05 14:09:36;;;;;;;0.57;0.28;;;;;;;3.06;100.00;100628.28;4979629;28;20521;-83
2021/01/05 14:12:40;;;;;;;11.00;0.47;;;;;;;3.09;100.00;100629.47;4992124;28;20046;-81
2021/01/05 14:15:43;;;;;;;9.40;0.57;;;;;;;3.03;100.00;100634.59;4979843;28;20510;-82
2021/01/05 14:18:50;;;;;;;0.10;0.10;;;;;;;2.95;100.00;100633.09;4979623;28;20068;-81
2021/01/05 14:21:54;;;;;;;4.25;0.73;;;;;;;2.90;100.00;100630.75;4979798;28;20053;-82
2021/01/05 14:24:58;;;;;;;9.50;0.40;;;;;;;2.91;100.00;100637.84;5005556;28;20513;-83
2021/01/05 14:28:02;;;;;;;7.63;1.00;;;;;;;3.03;100.00;100633.84;5011657;28;20514;-83
2021/01/05 14:31:06;;;;;;;3.35;0.90;;;;;;;3.08;100.00;100631.41;5012224;28;20065;-82